Time;durP1;ratioP1;P1;durP2;ratioP2;P2;SDS_P1;SDS_P2;PMS_P1;PMS_P2;Temp;Humidity;BMP_temperature;BMP_pressure;BME280_temperature;BME280_humidity;BME280_pressure;Samples;Min_cycle;Max_cycle;Signal;HPM_P1;HPM_P2
2024/02/09 00:00:10;;;;;;;14.27;4.43;;;8.20;99.90;;;;;;6213429;23;20197;-77
2024/02/09 00:02:41;;;;;;;12.70;3.20;;;8.20;99.90;;;;;;6213227;23;20005;-77
2024/02/09 00:05:10;;;;;;;11.60;3.83;;;8.20;99.90;;;;;;6213119;23;20008;-77
2024/02/09 00:07:36;;;;;;;12.17;3.50;;;8.30;99.90;;;;;;6213264;23;20079;-77
2024/02/09 00:10:04;;;;;;;16.40;3.10;;;8.30;99.90;;;;;;6213512;23;20059;-77
2024/02/09 00:12:30;;;;;;;12.87;3.60;;;8.30;99.90;;;;;;6213728;23;20335;-77
2024/02/09 00:14:56;;;;;;;13.80;3.97;;;8.30;99.90;;;;;;6213020;23;20005;-77
2024/02/09 00:17:22;;;;;;;12.83;3.63;;;8.30;99.90;;;;;;6213105;23;20019;-77
2024/02/09 00:19:47;;;;;;;9.13;3.43;;;8.30;99.90;;;;;;6213807;23;20074;-77
2024/02/09 00:22:13;;;;;;;15.83;4.17;;;8.30;99.90;;;;;;6213628;23;20068;-77
2024/02/09 00:24:42;;;;;;;13.53;3.43;;;8.30;99.90;;;;;;6213224;23;20055;-77
2024/02/09 00:27:11;;;;;;;14.93;3.77;;;8.30;99.90;;;;;;6213819;23;20027;-77
2024/02/09 00:29:37;;;;;;;11.70;3.60;;;8.30;99.90;;;;;;6213417;23;20012;-77
2024/02/09 00:32:04;;;;;;;11.27;4.13;;;8.30;99.90;;;;;;6213993;23;20004;-77
2024/02/09 00:34:33;;;;;;;17.07;4.53;;;8.20;99.90;;;;;;6212542;23;20064;-77
2024/02/09 00:37:00;;;;;;;12.47;4.10;;;8.30;99.90;;;;;;6213698;23;20007;-78
2024/02/09 00:39:25;;;;;;;12.73;3.97;;;8.30;99.90;;;;;;6213442;23;20342;-77
2024/02/09 00:41:51;;;;;;;16.80;4.10;;;8.30;99.90;;;;;;6213623;23;20095;-77
2024/02/09 00:44:17;;;;;;;15.93;4.83;;;8.30;99.90;;;;;;6212934;23;20008;-77
2024/02/09 00:46:43;;;;;;;14.73;4.40;;;8.20;99.90;;;;;;6213266;23;20084;-77
2024/02/09 00:49:09;;;;;;;16.23;4.97;;;8.20;99.90;;;;;;6213597;23;20403;-77
2024/02/09 00:51:36;;;;;;;11.07;4.43;;;8.20;99.90;;;;;;6213436;23;20084;-78
2024/02/09 00:54:02;;;;;;;18.83;4.00;;;8.20;99.90;;;;;;6212590;23;20020;-77
2024/02/09 00:56:28;;;;;;;14.53;4.20;;;8.20;99.90;;;;;;6213451;23;20023;-77
2024/02/09 00:58:56;;;;;;;14.63;4.00;;;8.10;99.90;;;;;;6213569;23;19997;-77
2024/02/09 01:01:22;;;;;;;13.23;4.93;;;8.10;99.90;;;;;;6213032;23;20071;-77
2024/02/09 01:03:47;;;;;;;20.30;5.60;;;8.10;99.90;;;;;;6212800;23;20028;-77
2024/02/09 01:06:13;;;;;;;16.03;4.60;;;8.10;99.90;;;;;;6213425;23;20020;-77
2024/02/09 01:08:39;;;;;;;18.07;4.70;;;8.00;99.90;;;;;;6215656;23;20008;-77
2024/02/09 01:11:08;;;;;;;18.50;4.40;;;8.00;99.90;;;;;;6215395;23;20036;-77
2024/02/09 02:46:25;;;;;;;17.30;3.30;;;7.80;99.90;;;;;;6214193;23;20007;-76
2024/02/09 03:05:26;;;;;;;6.75;2.72;;;8.00;99.90;;;;;;6214012;23;20542;-77
2024/02/09 03:07:56;;;;;;;6.73;2.10;;;8.00;99.90;;;;;;6214128;23;20032;-76
2024/02/09 03:10:22;;;;;;;7.20;2.53;;;8.10;99.90;;;;;;6214220;23;20032;-77
2024/02/09 03:12:49;;;;;;;8.53;2.50;;;8.10;99.90;;;;;;6213734;23;20005;-76
2024/02/09 03:15:20;;;;;;;8.50;2.53;;;8.10;99.90;;;;;;6213123;23;20005;-77
2024/02/09 03:17:49;;;;;;;7.77;1.97;;;8.10;99.90;;;;;;6213187;23;20504;-77
2024/02/09 03:20:14;;;;;;;8.67;2.10;;;8.20;99.90;;;;;;6214099;23;20001;-77
2024/02/09 03:22:40;;;;;;;8.47;2.20;;;8.20;99.90;;;;;;6213556;23;20423;-76
2024/02/09 03:25:08;;;;;;;9.40;3.23;;;8.20;99.90;;;;;;6213177;23;20032;-77
2024/02/09 03:27:35;;;;;;;10.90;2.50;;;8.20;99.90;;;;;;6213900;23;20004;-76
2024/02/09 03:30:02;;;;;;;9.13;2.47;;;8.20;99.90;;;;;;6213715;23;20039;-77
2024/02/09 03:32:28;;;;;;;11.07;2.83;;;8.20;99.90;;;;;;6213350;23;20000;-77
2024/02/09 03:34:58;;;;;;;9.03;2.57;;;8.20;99.90;;;;;;6213462;23;20004;-76
2024/02/09 03:37:26;;;;;;;8.33;2.37;;;8.20;99.90;;;;;;6213883;23;20003;-77
2024/02/09 03:39:53;;;;;;;6.43;2.20;;;8.20;99.90;;;;;;6213478;23;20481;-77
2024/02/09 03:42:23;;;;;;;10.27;2.20;;;8.20;99.90;;;;;;6214348;23;19997;-77
2024/02/09 03:44:55;;;;;;;6.83;2.10;;;8.10;99.90;;;;;;6213271;23;20005;-77
2024/02/09 03:47:24;;;;;;;9.07;2.83;;;8.10;99.90;;;;;;6213483;23;20491;-77
2024/02/09 03:49:59;;;;;;;9.57;2.60;;;8.10;99.90;;;;;;6214036;23;20003;-77
2024/02/09 03:52:25;;;;;;;10.40;2.30;;;8.10;99.90;;;;;;6213607;23;20331;-77
2024/02/09 03:54:52;;;;;;;5.90;2.30;;;8.10;99.90;;;;;;6212973;23;20401;-77
2024/02/09 03:57:25;;;;;;;10.47;2.30;;;8.10;99.90;;;;;;6213854;23;20032;-77
2024/02/09 03:59:52;;;;;;;5.03;1.90;;;8.00;99.90;;;;;;6213780;23;20016;-77
2024/02/09 04:02:18;;;;;;;10.87;2.47;;;8.00;99.90;;;;;;6213625;23;20043;-76
2024/02/09 04:04:44;;;;;;;6.03;2.30;;;8.00;99.90;;;;;;6212951;23;19996;-76
2024/02/09 04:07:10;;;;;;;7.57;2.30;;;8.00;99.90;;;;;;6213506;23;19996;-77
2024/02/09 04:09:37;;;;;;;8.63;2.53;;;8.00;99.90;;;;;;6213734;23;20326;-77
2024/02/09 04:12:03;;;;;;;8.20;3.33;;;7.90;99.90;;;;;;6213450;23;20011;-77
2024/02/09 04:14:29;;;;;;;7.10;2.33;;;7.90;99.90;;;;;;6212631;23;20001;-76
2024/02/09 04:16:55;;;;;;;8.77;2.37;;;7.80;99.90;;;;;;6213063;23;20371;-76
2024/02/09 04:19:22;;;;;;;5.93;2.50;;;7.80;99.90;;;;;;6213691;23;20000;-76
2024/02/09 04:21:48;;;;;;;10.60;2.60;;;7.80;99.90;;;;;;6212931;23;20032;-76
2024/02/09 04:24:24;;;;;;;8.97;2.33;;;7.80;99.90;;;;;;6212790;23;20000;-77
2024/02/09 04:26:54;;;;;;;5.10;2.20;;;7.80;99.90;;;;;;6213561;23;20028;-76
2024/02/09 04:29:23;;;;;;;8.67;2.50;;;7.80;99.90;;;;;;6213932;23;20005;-76
2024/02/09 04:31:50;;;;;;;7.23;2.50;;;7.70;99.90;;;;;;6213658;23;20005;-76
2024/02/09 04:34:16;;;;;;;4.97;2.33;;;7.70;99.90;;;;;;6212667;23;20028;-77
2024/02/09 04:36:43;;;;;;;9.87;3.13;;;7.70;99.90;;;;;;6213139;23;20000;-76
2024/02/09 04:39:12;;;;;;;6.07;2.27;;;7.70;99.90;;;;;;6212961;23;20078;-76
2024/02/09 04:41:44;;;;;;;7.60;2.50;;;7.70;99.90;;;;;;6213359;23;20427;-77
2024/02/09 04:44:11;;;;;;;14.50;3.10;;;7.70;99.90;;;;;;6214853;23;20027;-76
2024/02/09 04:46:38;;;;;;;14.63;3.30;;;7.70;99.90;;;;;;6215469;23;20004;-76
2024/02/09 04:49:06;;;;;;;11.37;3.83;;;7.70;99.90;;;;;;6215042;23;20004;-76
2024/02/09 04:51:35;;;;;;;7.17;2.30;;;7.60;99.90;;;;;;6214902;23;20009;-76
2024/02/09 04:54:00;;;;;;;8.53;2.80;;;7.60;99.90;;;;;;6214449;23;20000;-76
2024/02/09 04:56:30;;;;;;;8.60;2.80;;;7.60;99.90;;;;;;6215215;23;20428;-76
2024/02/09 04:58:56;;;;;;;11.83;2.63;;;7.60;99.90;;;;;;6215553;23;20004;-76
2024/02/09 05:01:29;;;;;;;8.20;2.80;;;7.60;99.90;;;;;;6215222;23;20000;-76
2024/02/09 05:03:58;;;;;;;10.10;2.97;;;7.60;99.90;;;;;;6215019;23;20000;-76
2024/02/09 05:06:28;;;;;;;7.50;2.70;;;7.50;99.90;;;;;;6215160;23;20020;-76
2024/02/09 05:08:56;;;;;;;9.60;3.17;;;7.50;99.90;;;;;;6215347;23;20005;-77
2024/02/09 05:11:28;;;;;;;8.77;3.03;;;7.50;99.90;;;;;;6214861;23;20431;-77
2024/02/09 05:13:54;;;;;;;11.67;4.07;;;7.50;99.90;;;;;;6214911;23;20072;-75
2024/02/09 05:16:20;;;;;;;14.23;4.33;;;7.50;99.90;;;;;;6214765;23;20087;-75
2024/02/09 05:18:47;;;;;;;10.43;3.33;;;7.50;99.90;;;;;;6215335;23;20435;-76
2024/02/09 05:21:13;;;;;;;11.07;3.30;;;7.40;99.90;;;;;;6215263;23;20181;-76
2024/02/09 05:23:39;;;;;;;9.07;3.17;;;7.40;99.90;;;;;;6215111;23;20047;-76
2024/02/09 05:26:07;;;;;;;9.23;3.33;;;7.40;99.90;;;;;;6216896;23;20005;-80
2024/02/09 05:28:40;;;;;;;11.13;2.60;;;7.40;99.90;;;;;;6219725;23;20039;-80
2024/02/09 05:31:15;;;;;;;8.23;2.57;;;7.40;99.90;;;;;;6219176;23;20009;-79
2024/02/09 05:33:42;;;;;;;6.03;2.70;;;7.40;99.90;;;;;;6218877;23;20000;-80
2024/02/09 05:36:17;;;;;;;8.83;2.87;;;7.40;99.90;;;;;;6218755;23;20000;-80
2024/02/09 05:38:42;;;;;;;9.82;2.80;;;7.30;99.90;;;;;;6218145;23;20003;-79
2024/02/09 05:41:08;;;;;;;11.97;4.43;;;7.30;99.90;;;;;;6217780;23;20005;-79
2024/02/09 05:43:35;;;;;;;10.73;3.80;;;7.30;99.90;;;;;;6216877;23;20000;-79
2024/02/09 05:46:01;;;;;;;10.67;3.00;;;7.30;99.90;;;;;;6217273;23;20100;-79
2024/02/09 05:48:26;;;;;;;8.37;3.63;;;7.30;99.90;;;;;;6216788;23;20071;-77
2024/02/09 05:50:52;;;;;;;12.17;3.27;;;7.30;99.90;;;;;;6214814;23;20023;-77
2024/02/09 05:53:17;;;;;;;9.13;3.30;;;7.30;99.90;;;;;;6214688;23;20000;-77
2024/02/09 05:55:45;;;;;;;10.17;4.20;;;7.30;99.90;;;;;;6214074;23;20102;-77
2024/02/09 05:58:11;;;;;;;9.33;3.10;;;7.20;99.90;;;;;;6215463;23;19997;-77
2024/02/09 06:00:36;;;;;;;8.63;3.03;;;7.30;99.90;;;;;;6214885;23;20023;-77
2024/02/09 06:03:05;;;;;;;8.57;2.70;;;7.20;99.90;;;;;;6214665;23;20087;-77
2024/02/09 06:05:32;;;;;;;9.30;2.90;;;7.20;99.90;;;;;;6212984;23;20009;-77
2024/02/09 06:08:00;;;;;;;8.93;3.10;;;7.20;99.90;;;;;;6214684;23;20001;-77
2024/02/09 06:10:27;;;;;;;7.50;2.50;;;7.20;99.90;;;;;;6213477;23;20012;-77
2024/02/09 06:12:52;;;;;;;8.70;3.10;;;7.20;99.90;;;;;;6213406;23;20023;-77
2024/02/09 06:15:18;;;;;;;7.83;3.20;;;7.30;99.90;;;;;;6212873;23;20419;-78
2024/02/09 06:17:43;;;;;;;7.80;3.03;;;7.20;99.90;;;;;;6213085;23;20009;-77
2024/02/09 06:20:09;;;;;;;10.67;3.23;;;7.30;99.90;;;;;;6214075;23;20083;-78
2024/02/09 06:22:36;;;;;;;10.07;2.80;;;7.30;99.90;;;;;;6213654;23;20423;-78
2024/02/09 06:25:02;;;;;;;9.83;2.83;;;7.20;99.90;;;;;;6214130;23;20004;-78
2024/02/09 06:27:27;;;;;;;5.50;2.60;;;7.20;99.90;;;;;;6213929;23;20377;-78
2024/02/09 06:29:54;;;;;;;7.27;2.83;;;7.20;99.90;;;;;;6214073;23;19996;-78
2024/02/09 06:32:22;;;;;;;7.37;3.10;;;7.20;99.90;;;;;;6214143;23;20000;-78
2024/02/09 06:34:48;;;;;;;8.87;2.90;;;7.20;99.90;;;;;;6209697;23;20498;-77
2024/02/09 06:37:17;;;;;;;11.20;2.63;;;7.20;99.90;;;;;;6213128;23;20011;-78
2024/02/09 06:39:42;;;;;;;7.20;2.73;;;7.20;99.90;;;;;;6214019;23;20051;-78
2024/02/09 06:42:08;;;;;;;9.33;3.40;;;7.20;99.90;;;;;;6213970;23;20008;-78
2024/02/09 06:44:34;;;;;;;11.50;3.10;;;7.20;99.90;;;;;;6213137;23;20000;-78
2024/02/09 06:47:00;;;;;;;9.57;2.83;;;7.20;99.90;;;;;;6210843;23;20008;-77
2024/02/09 06:49:28;;;;;;;8.67;3.30;;;7.20;99.90;;;;;;6213184;23;20083;-78
2024/02/09 06:51:54;;;;;;;9.30;3.83;;;7.20;99.90;;;;;;6213375;23;20098;-77
2024/02/09 06:54:21;;;;;;;11.47;4.30;;;7.20;99.90;;;;;;6185971;23;20630;-77
2024/02/09 06:56:47;;;;;;;6.63;2.90;;;7.20;99.90;;;;;;6212887;23;20434;-77
2024/02/09 06:59:12;;;;;;;7.47;3.07;;;7.20;99.90;;;;;;6210073;23;20001;-77
2024/02/09 07:01:39;;;;;;;13.17;4.93;;;7.20;99.90;;;;;;6212143;23;20013;-77
2024/02/09 07:04:08;;;;;;;9.50;3.63;;;7.20;99.90;;;;;;6212500;23;20312;-77
2024/02/09 07:06:34;;;;;;;7.87;3.33;;;7.30;99.90;;;;;;6212933;23;20092;-77
2024/02/09 07:08:59;;;;;;;8.43;3.53;;;7.30;99.90;;;;;;6213490;23;20058;-77
2024/02/09 07:11:25;;;;;;;7.23;3.77;;;7.30;99.90;;;;;;6213349;23;20009;-76
2024/02/09 07:13:51;;;;;;;10.07;4.43;;;7.30;99.90;;;;;;6213023;23;20027;-77
2024/02/09 07:16:18;;;;;;;10.70;3.10;;;7.40;99.90;;;;;;6213215;23;20036;-77
2024/02/09 07:18:43;;;;;;;9.97;3.53;;;7.40;99.90;;;;;;6213528;23;20040;-76
2024/02/09 07:21:10;;;;;;;7.53;3.53;;;7.30;99.90;;;;;;6213274;23;20000;-77
2024/02/09 07:23:40;;;;;;;11.10;3.60;;;7.30;99.90;;;;;;6213221;23;20061;-76
2024/02/09 07:26:09;;;;;;;9.17;4.30;;;7.30;99.90;;;;;;6212433;23;20346;-76
2024/02/09 07:28:35;;;;;;;10.43;5.10;;;7.30;99.90;;;;;;6212182;23;20012;-76
2024/02/09 07:31:01;;;;;;;12.37;4.40;;;7.30;99.90;;;;;;6212696;23;20024;-76
2024/02/09 07:33:27;;;;;;;12.37;4.50;;;7.30;99.90;;;;;;6212537;23;20020;-76
2024/02/09 07:35:52;;;;;;;11.00;4.87;;;7.40;99.90;;;;;;6212121;23;19997;-76
2024/02/09 07:38:18;;;;;;;11.13;4.60;;;7.40;99.90;;;;;;6213116;23;20001;-76
2024/02/09 07:40:43;;;;;;;17.00;5.80;;;7.40;99.90;;;;;;6212864;23;19996;-76
2024/02/09 07:43:09;;;;;;;9.43;4.13;;;7.40;99.90;;;;;;6212934;23;20367;-76
2024/02/09 07:45:35;;;;;;;7.70;4.33;;;7.50;99.90;;;;;;6211930;23;20435;-76
2024/02/09 07:48:01;;;;;;;9.43;4.57;;;7.50;99.90;;;;;;6212742;23;20000;-76
2024/02/09 07:50:27;;;;;;;12.47;4.40;;;7.50;99.90;;;;;;6210003;23;20009;-76
2024/02/09 07:52:53;;;;;;;9.07;4.43;;;7.60;99.90;;;;;;6211635;23;20312;-77
2024/02/09 07:55:21;;;;;;;11.60;4.40;;;7.60;99.90;;;;;;6212087;23;20493;-77
2024/02/09 07:57:47;;;;;;;8.87;4.03;;;7.60;99.90;;;;;;6212414;23;20457;-76
2024/02/09 08:00:17;;;;;;;11.37;4.70;;;7.70;99.90;;;;;;6213084;23;20032;-76
2024/02/09 08:02:43;;;;;;;11.00;4.30;;;7.70;99.90;;;;;;6212138;23;20050;-77
2024/02/09 08:05:17;;;;;;;7.57;4.33;;;7.80;99.90;;;;;;6211934;23;20001;-77
2024/02/09 08:07:49;;;;;;;7.77;4.10;;;7.80;99.90;;;;;;6211339;23;20008;-77
2024/02/09 08:10:14;;;;;;;11.33;3.90;;;7.90;99.90;;;;;;6213194;23;20259;-77
2024/02/09 08:12:41;;;;;;;12.07;4.50;;;7.90;99.90;;;;;;6212875;23;20009;-77
2024/02/09 08:15:11;;;;;;;12.00;4.27;;;8.00;99.90;;;;;;6212830;23;20011;-77
2024/02/09 08:17:47;;;;;;;9.27;4.30;;;8.00;99.90;;;;;;6212371;23;20059;-77
2024/02/09 08:20:13;;;;;;;9.27;4.60;;;8.10;99.90;;;;;;6213373;23;20031;-77
2024/02/09 08:22:44;;;;;;;13.87;4.40;;;8.20;99.90;;;;;;6213168;23;20012;-77
2024/02/09 08:25:13;;;;;;;8.60;4.40;;;8.20;99.90;;;;;;6212648;23;20115;-77
2024/02/09 08:27:39;;;;;;;12.20;4.60;;;8.30;99.90;;;;;;6212534;23;20446;-77
2024/02/09 08:30:08;;;;;;;9.63;3.90;;;8.30;99.90;;;;;;6212211;23;20503;-77
2024/02/09 08:32:34;;;;;;;8.83;4.47;;;8.40;99.90;;;;;;6213130;23;20009;-77
2024/02/09 08:35:00;;;;;;;10.30;4.10;;;8.50;99.90;;;;;;6212294;23;20090;-77
2024/02/09 08:37:27;;;;;;;10.03;4.07;;;8.70;99.90;;;;;;6212829;23;20001;-77
2024/02/09 08:39:52;;;;;;;9.30;4.50;;;8.80;99.90;;;;;;6212995;23;20071;-77
2024/02/09 08:42:18;;;;;;;9.63;5.37;;;8.90;99.90;;;;;;6213114;23;20028;-78
2024/02/09 08:44:44;;;;;;;9.27;3.77;;;9.00;99.90;;;;;;6211513;23;20064;-78
2024/02/09 08:47:10;;;;;;;10.00;3.60;;;9.10;99.90;;;;;;6212247;23;20076;-78
2024/02/09 08:49:37;;;;;;;7.60;3.40;;;9.20;99.90;;;;;;6186119;23;20035;-78
2024/02/09 08:52:03;;;;;;;6.83;3.60;;;9.30;99.90;;;;;;6212375;23;20015;-77
2024/02/09 08:54:29;;;;;;;9.83;3.30;;;9.40;99.90;;;;;;6212218;23;20434;-78
2024/02/09 08:56:57;;;;;;;7.63;3.50;;;9.50;99.90;;;;;;6213210;23;20051;-78
2024/02/09 08:59:22;;;;;;;6.03;3.23;;;9.50;99.90;;;;;;6211978;23;20005;-77
2024/02/09 09:01:48;;;;;;;6.10;3.70;;;9.60;99.90;;;;;;6212642;23;20092;-78
2024/02/09 09:04:14;;;;;;;11.47;4.40;;;9.70;99.90;;;;;;6213586;23;20004;-78
2024/02/09 09:06:40;;;;;;;8.67;3.77;;;9.80;99.90;;;;;;6213698;23;20005;-78
2024/02/09 09:09:06;;;;;;;11.57;4.90;;;9.80;99.90;;;;;;6213651;23;20462;-77
2024/02/09 09:11:31;;;;;;;9.20;3.47;;;9.90;99.90;;;;;;6214184;23;20015;-78
2024/02/09 09:13:57;;;;;;;7.20;3.27;;;10.00;99.90;;;;;;6212403;23;20003;-78
2024/02/09 09:16:23;;;;;;;6.60;4.03;;;10.10;99.90;;;;;;6211935;23;20078;-78
2024/02/09 09:18:50;;;;;;;8.20;4.00;;;10.10;99.90;;;;;;6213203;23;20372;-77
2024/02/09 09:21:24;;;;;;;9.10;3.57;;;10.10;99.90;;;;;;6212420;23;20560;-79
2024/02/09 09:23:51;;;;;;;7.68;3.80;;;10.20;99.90;;;;;;6215418;23;20004;-79
2024/02/09 09:26:17;;;;;;;6.50;4.17;;;10.30;99.90;;;;;;6216079;23;20000;-79
2024/02/09 09:28:43;;;;;;;11.77;4.33;;;10.40;99.90;;;;;;6216776;23;20058;-79
2024/02/09 09:31:08;;;;;;;87.73;44.47;;;10.40;99.90;;;;;;6216164;23;20008;-78
2024/02/09 09:33:33;;;;;;;124.83;60.30;;;10.40;99.90;;;;;;6216278;23;20313;-79
2024/02/09 09:36:02;;;;;;;30.23;16.67;;;10.40;99.90;;;;;;6190202;23;20486;-79
2024/02/09 09:38:27;;;;;;;12.70;6.37;;;10.40;99.90;;;;;;6215198;23;20008;-79
2024/02/09 09:40:54;;;;;;;10.53;4.40;;;10.50;99.90;;;;;;6217307;23;20001;-79
2024/02/09 09:43:21;;;;;;;10.37;4.83;;;10.40;99.90;;;;;;6218113;23;19996;-79
2024/02/09 09:45:56;;;;;;;11.90;4.17;;;10.50;99.90;;;;;;6216758;23;20331;-79
2024/02/09 09:48:22;;;;;;;13.40;5.57;;;10.60;99.90;;;;;;6217928;23;20000;-79
2024/02/09 09:50:50;;;;;;;9.73;5.17;;;10.70;99.90;;;;;;6218086;23;20647;-79
2024/02/09 09:53:20;;;;;;;21.13;11.27;;;10.80;99.90;;;;;;6217265;23;20008;-79
2024/02/09 09:55:46;;;;;;;9.50;4.43;;;10.90;99.90;;;;;;6216280;23;20009;-79
2024/02/09 09:58:12;;;;;;;8.80;3.58;;;11.00;99.90;;;;;;6217360;23;20449;-78
2024/02/09 10:00:40;;;;;;;9.55;3.53;;;11.20;99.90;;;;;;6216353;23;20021;-77
2024/02/09 10:03:07;;;;;;;7.07;3.10;;;11.20;99.90;;;;;;6214855;23;20008;-77
2024/02/09 10:05:35;;;;;;;6.23;2.40;;;11.30;99.90;;;;;;6213826;23;20008;-77
2024/02/09 10:08:01;;;;;;;6.38;2.70;;;11.40;99.90;;;;;;6214127;23;20011;-77
2024/02/09 10:10:28;;;;;;;5.43;2.60;;;11.40;99.90;;;;;;6214138;23;20428;-77
2024/02/09 10:13:22;;;;;;;10.27;3.22;;;11.50;99.90;;;;;;6214082;23;20050;-77
2024/02/09 10:15:48;;;;;;;5.43;2.45;;;11.60;99.90;;;;;;6209067;23;20067;-77
2024/02/09 10:18:13;;;;;;;6.85;2.45;;;11.70;99.90;;;;;;6214063;23;20004;-78
2024/02/09 10:20:42;;;;;;;4.55;2.15;;;11.80;99.90;;;;;;6214380;23;20028;-78
2024/02/09 10:23:08;;;;;;;4.78;1.80;;;11.90;99.90;;;;;;6214098;23;20063;-78
2024/02/09 10:25:34;;;;;;;7.55;2.72;;;12.00;99.90;;;;;;6212408;23;20000;-78
2024/02/09 10:28:00;;;;;;;7.97;2.58;;;12.00;99.90;;;;;;6215510;23;20001;-78
2024/02/09 10:30:28;;;;;;;6.85;2.50;;;12.10;99.90;;;;;;6214572;23;20052;-78
2024/02/09 10:32:54;;;;;;;10.05;3.10;;;12.10;99.90;;;;;;6213969;23;20044;-78
2024/02/09 10:35:20;;;;;;;8.48;2.78;;;12.10;99.90;;;;;;6214321;23;20011;-78
2024/02/09 10:37:45;;;;;;;6.75;3.30;;;12.10;99.90;;;;;;6215378;23;20007;-78
2024/02/09 10:40:11;;;;;;;26.13;11.95;;;12.10;99.90;;;;;;6186660;23;20405;-79
2024/02/09 10:42:40;;;;;;;11.75;3.47;;;12.10;99.90;;;;;;6213705;23;20001;-79
2024/02/09 10:45:09;;;;;;;7.40;2.45;;;12.10;99.90;;;;;;6214937;23;20083;-78
2024/02/09 10:47:39;;;;;;;9.10;2.53;;;12.20;99.90;;;;;;6216089;23;20067;-80
2024/02/09 10:50:06;;;;;;;10.13;2.40;;;12.20;99.90;;;;;;6215258;23;20058;-78
2024/02/09 10:52:37;;;;;;;5.72;2.50;;;12.30;99.90;;;;;;6215786;23;20005;-79
2024/02/09 10:55:06;;;;;;;8.38;2.40;;;12.40;99.90;;;;;;6215802;23;20008;-78
2024/02/09 10:57:34;;;;;;;11.20;2.75;;;12.40;99.90;;;;;;6216757;23;20001;-78
2024/02/09 11:00:02;;;;;;;9.77;2.20;;;12.50;99.90;;;;;;6216301;23;20005;-79
2024/02/09 11:02:35;;;;;;;6.32;2.25;;;12.50;99.90;;;;;;6216150;23;20004;-78
2024/02/09 11:05:03;;;;;;;5.95;2.00;;;12.50;99.90;;;;;;6216060;23;20001;-78
2024/02/09 11:07:29;;;;;;;6.05;1.80;;;12.50;99.90;;;;;;6215473;23;20378;-79
2024/02/09 11:09:55;;;;;;;8.82;2.40;;;12.50;99.90;;;;;;6215511;23;20055;-78
2024/02/09 11:12:21;;;;;;;8.88;2.17;;;12.60;99.90;;;;;;6215158;23;20013;-78
2024/02/09 11:14:46;;;;;;;8.63;2.38;;;12.60;99.90;;;;;;6215484;23;19993;-79
2024/02/09 11:17:18;;;;;;;6.95;2.45;;;12.70;99.90;;;;;;6213752;23;20443;-78
2024/02/09 11:19:44;;;;;;;8.25;2.10;;;12.70;99.90;;;;;;6215673;23;20024;-78
2024/02/09 11:22:11;;;;;;;7.95;2.92;;;12.80;99.90;;;;;;6214373;23;20008;-73
2024/02/09 11:24:38;;;;;;;8.27;2.80;;;12.80;99.90;;;;;;6214784;23;20039;-78
2024/02/09 11:27:05;;;;;;;15.55;3.15;;;12.80;99.90;;;;;;6214639;23;20005;-78
2024/02/09 11:29:32;;;;;;;29.95;15.55;;;12.80;99.90;;;;;;6214443;23;20356;-78
2024/02/09 11:32:02;;;;;;;56.15;36.53;;;12.90;99.90;;;;;;6212237;23;20000;-78
2024/02/09 11:34:35;;;;;;;23.60;11.95;;;12.90;99.90;;;;;;6214387;23;20004;-79
2024/02/09 11:37:01;;;;;;;24.30;13.43;;;12.90;99.90;;;;;;6214623;23;20016;-78
2024/02/09 11:39:28;;;;;;;10.70;3.53;;;13.00;99.90;;;;;;6213738;23;20023;-79
2024/02/09 11:41:54;;;;;;;11.82;4.18;;;13.00;99.90;;;;;;6213873;23;20000;-78
2024/02/09 11:44:20;;;;;;;11.02;3.60;;;13.10;99.90;;;;;;6214065;23;20076;-78
2024/02/09 11:46:47;;;;;;;15.60;5.75;;;13.20;99.90;;;;;;6213910;23;20351;-78
2024/02/09 11:49:14;;;;;;;11.23;3.65;;;13.30;99.90;;;;;;6214290;23;20028;-78
2024/02/09 11:51:39;;;;;;;15.00;5.25;;;13.30;99.90;;;;;;6213835;23;20004;-78
2024/02/09 11:54:09;;;;;;;8.35;2.70;;;13.30;99.90;;;;;;6211792;23;20015;-78
2024/02/09 11:56:37;;;;;;;14.88;5.35;;;13.50;99.90;;;;;;6213767;23;20359;-78
2024/02/09 11:59:04;;;;;;;12.55;4.07;;;13.50;99.90;;;;;;6213782;23;20005;-78
2024/02/09 12:01:30;;;;;;;37.08;18.35;;;13.60;99.90;;;;;;6213047;23;20374;-78
2024/02/09 12:03:56;;;;;;;10.63;3.65;;;13.70;99.90;;;;;;6210012;23;20458;-78
2024/02/09 12:06:22;;;;;;;8.15;3.35;;;13.80;99.90;;;;;;6213692;23;20031;-79
2024/02/09 12:08:51;;;;;;;8.18;2.30;;;13.80;99.90;;;;;;6213397;23;20008;-78
2024/02/09 12:11:20;;;;;;;24.35;11.38;;;13.90;99.90;;;;;;6213569;23;20338;-78
2024/02/09 12:13:46;;;;;;;15.40;7.07;;;13.90;99.90;;;;;;6212244;23;20007;-78
2024/02/09 12:16:15;;;;;;;14.60;4.75;;;13.90;99.90;;;;;;6211342;23;20009;-78
2024/02/09 12:18:53;;;;;;;15.10;4.97;;;13.90;99.90;;;;;;6213299;23;20374;-78
2024/02/09 12:21:19;;;;;;;16.15;3.17;;;13.80;99.90;;;;;;6214225;23;20001;-77
2024/02/09 12:23:45;;;;;;;16.50;4.82;;;13.80;99.90;;;;;;6213505;23;20011;-78
2024/02/09 12:26:12;;;;;;;33.88;15.13;;;13.70;99.90;;;;;;6213348;23;20062;-78
2024/02/09 12:28:38;;;;;;;20.60;7.03;;;13.70;99.90;;;;;;6212654;23;20431;-78
2024/02/09 12:31:08;;;;;;;15.40;7.22;;;13.60;99.90;;;;;;6212717;23;20150;-78
2024/02/09 12:33:44;;;;;;;11.95;3.53;;;13.50;99.90;;;;;;6212803;23;20032;-78
2024/02/09 12:36:13;;;;;;;15.95;5.45;;;13.40;99.90;;;;;;6211514;23;20095;-78
2024/02/09 12:38:40;;;;;;;13.55;4.00;;;13.30;99.90;;;;;;6211672;23;20108;-78
2024/02/09 12:41:07;;;;;;;10.30;3.42;;;13.30;99.90;;;;;;6211958;23;20378;-78
2024/02/09 12:43:33;;;;;;;16.48;3.97;;;13.20;99.90;;;;;;6212333;23;20001;-78
2024/02/09 12:46:00;;;;;;;17.08;4.10;;;13.20;99.90;;;;;;6211525;23;20028;-78
2024/02/09 12:48:28;;;;;;;14.38;5.38;;;13.30;99.90;;;;;;6212463;23;20054;-78
2024/02/09 12:50:54;;;;;;;11.10;3.15;;;13.30;99.90;;;;;;6212978;23;20008;-78
2024/02/09 12:53:20;;;;;;;10.75;3.17;;;13.30;99.90;;;;;;6213013;23;20005;-78
2024/02/09 12:55:46;;;;;;;11.00;5.95;;;13.30;99.90;;;;;;6209910;23;20005;-78
2024/02/09 12:58:12;;;;;;;40.45;17.60;;;13.40;99.90;;;;;;6207483;23;19997;-78
2024/02/09 13:00:38;;;;;;;15.13;4.07;;;13.30;99.90;;;;;;6211577;23;20009;-78
2024/02/09 13:03:04;;;;;;;11.77;4.07;;;13.40;99.90;;;;;;6213190;23;20607;-78
2024/02/09 13:05:30;;;;;;;17.90;6.40;;;13.40;99.90;;;;;;6214370;23;20008;-78
2024/02/09 13:08:00;;;;;;;19.88;4.15;;;13.40;99.90;;;;;;6214411;23;20071;-78
2024/02/09 13:10:26;;;;;;;14.48;3.08;;;13.40;99.90;;;;;;6214809;23;20078;-78
2024/02/09 13:12:53;;;;;;;24.38;9.05;;;13.40;99.90;;;;;;6214919;23;20025;-78
2024/02/09 13:15:20;;;;;;;15.43;5.63;;;13.40;99.90;;;;;;6214246;23;19997;-78
2024/02/09 13:17:48;;;;;;;17.40;5.07;;;13.40;99.90;;;;;;6214675;23;20012;-76
2024/02/09 13:20:18;;;;;;;43.22;18.45;;;13.50;99.90;;;;;;6214758;23;20000;-76
2024/02/09 13:22:44;;;;;;;14.88;4.57;;;13.50;99.90;;;;;;6214485;23;20001;-76
2024/02/09 13:25:13;;;;;;;18.85;4.63;;;13.50;99.90;;;;;;6211834;23;20027;-78
2024/02/09 13:27:41;;;;;;;39.50;18.77;;;13.60;99.90;;;;;;6212413;23;20023;-78
2024/02/09 13:30:08;;;;;;;26.65;7.85;;;13.50;99.90;;;;;;6212572;23;20013;-78
2024/02/09 13:32:35;;;;;;;18.25;3.78;;;13.60;99.90;;;;;;6212442;23;20084;-77
2024/02/09 13:35:01;;;;;;;22.98;8.13;;;13.60;99.90;;;;;;6211797;23;20443;-77
2024/02/09 13:37:26;;;;;;;13.30;3.92;;;13.60;99.90;;;;;;6212400;23;20000;-78
2024/02/09 13:39:53;;;;;;;29.40;7.28;;;13.50;99.90;;;;;;6212202;23;20470;-78
2024/02/09 13:42:21;;;;;;;26.17;8.27;;;13.50;99.90;;;;;;6212789;23;20078;-78
2024/02/09 13:44:47;;;;;;;15.10;3.47;;;13.50;99.90;;;;;;6211168;23;20008;-78
2024/02/09 13:47:12;;;;;;;16.38;3.75;;;13.50;99.90;;;;;;6212151;23;20308;-78
2024/02/09 13:49:38;;;;;;;17.65;4.43;;;13.60;99.90;;;;;;6212912;23;20015;-78
2024/02/09 13:52:04;;;;;;;24.73;9.70;;;13.60;99.90;;;;;;6212022;23;20012;-78
2024/02/09 13:54:31;;;;;;;27.00;9.70;;;13.50;99.90;;;;;;6210847;23;20466;-78
2024/02/09 13:56:56;;;;;;;22.10;8.15;;;13.40;99.90;;;;;;6212476;23;20005;-78
2024/02/09 13:59:22;;;;;;;26.50;7.45;;;13.40;99.90;;;;;;6212405;23;20531;-77
2024/02/09 14:01:48;;;;;;;22.38;7.10;;;13.30;99.90;;;;;;6212483;23;20004;-78
2024/02/09 14:04:13;;;;;;;27.08;9.85;;;13.30;99.90;;;;;;6210656;23;20001;-77
2024/02/09 14:06:42;;;;;;;32.33;11.65;;;13.20;99.90;;;;;;6212535;23;20363;-78
2024/02/09 14:09:08;;;;;;;49.63;19.70;;;13.20;99.90;;;;;;6213172;23;20352;-78
2024/02/09 14:11:34;;;;;;;29.02;9.32;;;13.10;99.90;;;;;;6213273;23;20004;-78
2024/02/09 14:14:00;;;;;;;38.13;11.38;;;13.10;99.90;;;;;;6211882;23;20004;-78
2024/02/09 14:16:25;;;;;;;36.30;15.27;;;13.10;99.90;;;;;;6211832;23;20359;-78
2024/02/09 14:18:51;;;;;;;20.88;9.68;;;13.10;99.90;;;;;;6212263;23;20078;-78
2024/02/09 14:21:16;;;;;;;15.27;4.70;;;13.00;99.90;;;;;;6211383;23;20692;-78
2024/02/09 14:23:42;;;;;;;43.47;14.02;;;13.00;99.90;;;;;;6211742;23;20004;-78
2024/02/09 14:26:08;;;;;;;13.43;5.05;;;13.00;99.90;;;;;;6211526;23;20291;-78
2024/02/09 14:28:33;;;;;;;41.50;15.23;;;13.00;99.90;;;;;;6212000;23;20000;-78
2024/02/09 14:31:00;;;;;;;24.30;10.60;;;13.00;99.90;;;;;;6211994;23;20086;-78
2024/02/09 14:33:26;;;;;;;25.30;10.48;;;13.00;99.90;;;;;;6212196;23;20334;-78